sensor_id;sensor_type;location;lat;lon;timestamp;temperature;humidity
15922;DHT22;8060;50.948;3.146;2023-05-17T04:26:29;9.50;99.90
15922;DHT22;8060;50.948;3.146;2023-05-17T04:28:58;9.50;99.90
15922;DHT22;8060;50.948;3.146;2023-05-17T04:31:26;9.60;99.90
15922;DHT22;8060;50.948;3.146;2023-05-17T04:33:54;9.60;99.90
15922;DHT22;8060;50.948;3.146;2023-05-17T04:36:22;9.70;99.90
15922;DHT22;8060;50.948;3.146;2023-05-17T04:38:50;9.80;99.90
15922;DHT22;8060;50.948;3.146;2023-05-17T04:41:18;9.80;99.90
15922;DHT22;8060;50.948;3.146;2023-05-17T04:43:47;9.90;99.90
15922;DHT22;8060;50.948;3.146;2023-05-17T04:46:16;10.00;99.90
15922;DHT22;8060;50.948;3.146;2023-05-17T04:48:44;10.10;99.90
15922;DHT22;8060;50.948;3.146;2023-05-17T04:51:13;10.20;99.90
15922;DHT22;8060;50.948;3.146;2023-05-17T04:53:41;10.20;99.90
15922;DHT22;8060;50.948;3.146;2023-05-17T04:56:09;10.30;99.90
15922;DHT22;8060;50.948;3.146;2023-05-17T04:58:37;10.40;99.90
15922;DHT22;8060;50.948;3.146;2023-05-17T05:01:06;10.40;99.90
15922;DHT22;8060;50.948;3.146;2023-05-17T05:03:35;10.40;99.90
15922;DHT22;8060;50.948;3.146;2023-05-17T05:06:03;10.50;99.90
15922;DHT22;8060;50.948;3.146;2023-05-17T05:08:32;10.50;99.90
15922;DHT22;8060;50.948;3.146;2023-05-17T05:11:01;10.50;99.90
15922;DHT22;8060;50.948;3.146;2023-05-17T05:13:29;10.60;99.90
15922;DHT22;8060;50.948;3.146;2023-05-17T05:15:57;10.60;99.90
15922;DHT22;8060;50.948;3.146;2023-05-17T05:18:26;10.60;99.90
15922;DHT22;8060;50.948;3.146;2023-05-17T05:20:55;10.60;99.90
15922;DHT22;8060;50.948;3.146;2023-05-17T05:23:23;10.70;99.90
15922;DHT22;8060;50.948;3.146;2023-05-17T05:25:52;10.80;99.90
15922;DHT22;8060;50.948;3.146;2023-05-17T05:28:20;10.80;99.90
15922;DHT22;8060;50.948;3.146;2023-05-17T05:30:48;10.80;99.90
15922;DHT22;8060;50.948;3.146;2023-05-17T05:33:16;10.90;99.90
15922;DHT22;8060;50.948;3.146;2023-05-17T05:35:46;10.90;99.90
15922;DHT22;8060;50.948;3.146;2023-05-17T05:38:14;11.00;99.90
15922;DHT22;8060;50.948;3.146;2023-05-17T05:40:44;11.00;99.90
15922;DHT22;8060;50.948;3.146;2023-05-17T05:43:12;11.00;99.90
15922;DHT22;8060;50.948;3.146;2023-05-17T05:45:40;11.10;99.90
15922;DHT22;8060;50.948;3.146;2023-05-17T05:48:11;11.10;99.90
15922;DHT22;8060;50.948;3.146;2023-05-17T05:50:41;11.10;99.90
15922;DHT22;8060;50.948;3.146;2023-05-17T05:53:11;11.10;99.90
15922;DHT22;8060;50.948;3.146;2023-05-17T05:55:45;11.20;99.90
15922;DHT22;8060;50.948;3.146;2023-05-17T05:58:13;11.20;99.90
15922;DHT22;8060;50.948;3.146;2023-05-17T06:00:41;11.30;99.90
15922;DHT22;8060;50.948;3.146;2023-05-17T06:03:09;11.30;99.90
15922;DHT22;8060;50.948;3.146;2023-05-17T06:05:37;11.40;99.90
15922;DHT22;8060;50.948;3.146;2023-05-17T06:08:06;11.50;99.90
15922;DHT22;8060;50.948;3.146;2023-05-17T06:10:35;11.50;99.90
15922;DHT22;8060;50.948;3.146;2023-05-17T06:13:03;11.60;99.90
15922;DHT22;8060;50.948;3.146;2023-05-17T06:15:32;11.60;99.90
15922;DHT22;8060;50.948;3.146;2023-05-17T06:18:00;11.60;99.90
15922;DHT22;8060;50.948;3.146;2023-05-17T06:20:28;11.70;99.90
15922;DHT22;8060;50.948;3.146;2023-05-17T06:22:57;11.80;99.90
15922;DHT22;8060;50.948;3.146;2023-05-17T06:25:25;11.80;99.90
15922;DHT22;8060;50.948;3.146;2023-05-17T06:27:54;11.90;99.90
15922;DHT22;8060;50.948;3.146;2023-05-17T06:30:22;12.10;99.90
15922;DHT22;8060;50.948;3.146;2023-05-17T06:32:53;12.30;99.90
15922;DHT22;8060;50.948;3.146;2023-05-17T06:35:22;12.40;99.90
15922;DHT22;8060;50.948;3.146;2023-05-17T06:37:50;12.60;99.90
15922;DHT22;8060;50.948;3.146;2023-05-17T06:40:18;12.80;99.90
15922;DHT22;8060;50.948;3.146;2023-05-17T06:42:46;12.80;99.90
15922;DHT22;8060;50.948;3.146;2023-05-17T06:45:16;12.90;99.90
15922;DHT22;8060;50.948;3.146;2023-05-17T06:47:44;13.00;99.90
15922;DHT22;8060;50.948;3.146;2023-05-17T06:50:13;13.10;99.90
15922;DHT22;8060;50.948;3.146;2023-05-17T06:52:42;13.50;99.90
15922;DHT22;8060;50.948;3.146;2023-05-17T06:55:10;13.60;99.90
15922;DHT22;8060;50.948;3.146;2023-05-17T06:57:38;13.70;99.90
15922;DHT22;8060;50.948;3.146;2023-05-17T07:00:07;13.80;99.90
15922;DHT22;8060;50.948;3.146;2023-05-17T07:02:38;13.90;99.90
15922;DHT22;8060;50.948;3.146;2023-05-17T07:05:07;14.10;99.90
15922;DHT22;8060;50.948;3.146;2023-05-17T07:07:35;14.20;99.90
15922;DHT22;8060;50.948;3.146;2023-05-17T07:10:04;14.20;99.90
15922;DHT22;8060;50.948;3.146;2023-05-17T07:12:33;14.20;99.90
15922;DHT22;8060;50.948;3.146;2023-05-17T07:15:04;14.30;99.90
15922;DHT22;8060;50.948;3.146;2023-05-17T07:17:33;14.40;99.90
15922;DHT22;8060;50.948;3.146;2023-05-17T07:20:03;14.50;99.90
15922;DHT22;8060;50.948;3.146;2023-05-17T07:22:32;14.70;99.90
15922;DHT22;8060;50.948;3.146;2023-05-17T07:25:00;14.80;99.90
15922;DHT22;8060;50.948;3.146;2023-05-17T07:27:28;14.80;99.90
15922;DHT22;8060;50.948;3.146;2023-05-17T07:29:56;14.70;99.90
15922;DHT22;8060;50.948;3.146;2023-05-17T07:32:24;14.70;99.90
15922;DHT22;8060;50.948;3.146;2023-05-17T07:34:53;14.90;99.90
15922;DHT22;8060;50.948;3.146;2023-05-17T07:37:22;15.00;99.90
15922;DHT22;8060;50.948;3.146;2023-05-17T07:39:50;15.20;99.90
15922;DHT22;8060;50.948;3.146;2023-05-17T07:42:18;15.30;99.90
15922;DHT22;8060;50.948;3.146;2023-05-17T07:44:48;15.40;99.90
15922;DHT22;8060;50.948;3.146;2023-05-17T07:47:16;15.50;99.90
15922;DHT22;8060;50.948;3.146;2023-05-17T07:49:44;15.70;99.90
15922;DHT22;8060;50.948;3.146;2023-05-17T07:52:12;15.80;99.90
15922;DHT22;8060;50.948;3.146;2023-05-17T07:54:42;15.90;99.90
15922;DHT22;8060;50.948;3.146;2023-05-17T07:57:10;16.00;99.90
15922;DHT22;8060;50.948;3.146;2023-05-17T07:59:38;16.20;99.90
15922;DHT22;8060;50.948;3.146;2023-05-17T08:02:06;16.30;99.90
15922;DHT22;8060;50.948;3.146;2023-05-17T08:04:35;16.50;99.90
15922;DHT22;8060;50.948;3.146;2023-05-17T08:07:04;16.60;99.90
15922;DHT22;8060;50.948;3.146;2023-05-17T08:09:32;16.80;99.90
15922;DHT22;8060;50.948;3.146;2023-05-17T08:12:01;16.90;99.90
15922;DHT22;8060;50.948;3.146;2023-05-17T08:14:32;16.90;99.90
15922;DHT22;8060;50.948;3.146;2023-05-17T08:17:00;17.00;99.90
15922;DHT22;8060;50.948;3.146;2023-05-17T08:19:28;17.00;99.90
15922;DHT22;8060;50.948;3.146;2023-05-17T08:21:56;17.00;99.90
15922;DHT22;8060;50.948;3.146;2023-05-17T08:24:25;17.00;99.90
15922;DHT22;8060;50.948;3.146;2023-05-17T08:26:53;16.90;99.90
15922;DHT22;8060;50.948;3.146;2023-05-17T08:29:23;17.00;99.90
15922;DHT22;8060;50.948;3.146;2023-05-17T08:31:52;17.00;99.90
15922;DHT22;8060;50.948;3.146;2023-05-17T08:34:21;17.20;99.90
15922;DHT22;8060;50.948;3.146;2023-05-17T08:36:52;17.40;99.90
15922;DHT22;8060;50.948;3.146;2023-05-17T08:39:21;17.40;99.90
15922;DHT22;8060;50.948;3.146;2023-05-17T08:41:49;17.40;99.90
15922;DHT22;8060;50.948;3.146;2023-05-17T08:44:18;17.50;99.90
15922;DHT22;8060;50.948;3.146;2023-05-17T08:46:48;17.50;99.90
15922;DHT22;8060;50.948;3.146;2023-05-17T08:49:21;17.40;99.90
15922;DHT22;8060;50.948;3.146;2023-05-17T08:51:53;17.20;99.90
15922;DHT22;8060;50.948;3.146;2023-05-17T08:54:22;17.10;99.90
15922;DHT22;8060;50.948;3.146;2023-05-17T08:56:53;17.10;99.90
15922;DHT22;8060;50.948;3.146;2023-05-17T08:59:22;17.00;99.90
15922;DHT22;8060;50.948;3.146;2023-05-17T09:01:53;17.10;99.90
15922;DHT22;8060;50.948;3.146;2023-05-17T09:04:22;17.30;99.90
15922;DHT22;8060;50.948;3.146;2023-05-17T09:06:50;17.40;99.90
15922;DHT22;8060;50.948;3.146;2023-05-17T09:09:19;17.30;99.90
15922;DHT22;8060;50.948;3.146;2023-05-17T09:11:48;17.30;99.90
15922;DHT22;8060;50.948;3.146;2023-05-17T09:14:17;17.20;99.90
15922;DHT22;8060;50.948;3.146;2023-05-17T09:16:45;16.90;99.90
15922;DHT22;8060;50.948;3.146;2023-05-17T09:19:16;16.80;99.90
15922;DHT22;8060;50.948;3.146;2023-05-17T09:21:44;17.00;99.90
15922;DHT22;8060;50.948;3.146;2023-05-17T09:24:13;17.20;99.90
15922;DHT22;8060;50.948;3.146;2023-05-17T09:26:42;17.40;99.90
15922;DHT22;8060;50.948;3.146;2023-05-17T09:29:12;17.60;99.90
15922;DHT22;8060;50.948;3.146;2023-05-17T09:31:41;17.50;99.90
15922;DHT22;8060;50.948;3.146;2023-05-17T09:34:10;17.50;99.90
15922;DHT22;8060;50.948;3.146;2023-05-17T09:36:42;17.70;99.90
15922;DHT22;8060;50.948;3.146;2023-05-17T09:39:10;18.20;99.90
15922;DHT22;8060;50.948;3.146;2023-05-17T09:41:42;18.50;99.90
15922;DHT22;8060;50.948;3.146;2023-05-17T09:44:12;18.90;99.90
15922;DHT22;8060;50.948;3.146;2023-05-17T09:46:43;19.20;99.90
15922;DHT22;8060;50.948;3.146;2023-05-17T09:49:11;19.30;99.90
15922;DHT22;8060;50.948;3.146;2023-05-17T09:51:42;19.30;99.90
15922;DHT22;8060;50.948;3.146;2023-05-17T09:54:11;19.30;99.90
15922;DHT22;8060;50.948;3.146;2023-05-17T09:56:39;19.40;99.90
15922;DHT22;8060;50.948;3.146;2023-05-17T09:59:13;19.40;99.90
15922;DHT22;8060;50.948;3.146;2023-05-17T10:01:43;19.70;99.90
15922;DHT22;8060;50.948;3.146;2023-05-17T10:04:12;20.00;99.90
15922;DHT22;8060;50.948;3.146;2023-05-17T10:06:48;20.30;99.90
15922;DHT22;8060;50.948;3.146;2023-05-17T10:09:21;20.50;99.90
15922;DHT22;8060;50.948;3.146;2023-05-17T10:11:51;20.60;99.90
15922;DHT22;8060;50.948;3.146;2023-05-17T10:14:25;20.30;99.90
15922;DHT22;8060;50.948;3.146;2023-05-17T10:17:06;20.20;99.90
15922;DHT22;8060;50.948;3.146;2023-05-17T10:19:36;20.50;99.90
15922;DHT22;8060;50.948;3.146;2023-05-17T10:22:06;20.70;99.90
15922;DHT22;8060;50.948;3.146;2023-05-17T10:24:49;20.70;99.90
15922;DHT22;8060;50.948;3.146;2023-05-17T10:27:18;20.60;99.90
15922;DHT22;8060;50.948;3.146;2023-05-17T10:29:47;20.90;99.90
15922;DHT22;8060;50.948;3.146;2023-05-17T10:32:18;21.20;99.90
15922;DHT22;8060;50.948;3.146;2023-05-17T10:34:49;21.40;99.90
15922;DHT22;8060;50.948;3.146;2023-05-17T10:37:38;21.40;99.90
15922;DHT22;8060;50.948;3.146;2023-05-17T10:40:08;21.60;99.90
15922;DHT22;8060;50.948;3.146;2023-05-17T10:42:42;21.70;99.90
15922;DHT22;8060;50.948;3.146;2023-05-17T10:45:12;21.60;99.90
15922;DHT22;8060;50.948;3.146;2023-05-17T10:47:41;21.70;99.90
15922;DHT22;8060;50.948;3.146;2023-05-17T10:50:12;21.80;99.90
15922;DHT22;8060;50.948;3.146;2023-05-17T10:52:53;22.20;99.90
15922;DHT22;8060;50.948;3.146;2023-05-17T10:55:23;22.30;99.90
15922;DHT22;8060;50.948;3.146;2023-05-17T10:58:14;22.30;99.90
15922;DHT22;8060;50.948;3.146;2023-05-17T11:00:43;22.40;99.90
15922;DHT22;8060;50.948;3.146;2023-05-17T11:03:14;22.60;99.90
15922;DHT22;8060;50.948;3.146;2023-05-17T11:05:44;22.60;99.90
15922;DHT22;8060;50.948;3.146;2023-05-17T11:08:16;22.50;99.90
15922;DHT22;8060;50.948;3.146;2023-05-17T11:11:09;22.60;99.90
15922;DHT22;8060;50.948;3.146;2023-05-17T11:13:45;22.40;99.90
15922;DHT22;8060;50.948;3.146;2023-05-17T11:16:16;22.60;99.90
15922;DHT22;8060;50.948;3.146;2023-05-17T11:18:48;22.80;99.90
15922;DHT22;8060;50.948;3.146;2023-05-17T11:21:17;23.20;99.90
15922;DHT22;8060;50.948;3.146;2023-05-17T11:23:48;23.30;99.90
15922;DHT22;8060;50.948;3.146;2023-05-17T11:26:22;23.10;99.90
15922;DHT22;8060;50.948;3.146;2023-05-17T11:28:59;23.00;99.90
15922;DHT22;8060;50.948;3.146;2023-05-17T11:31:29;22.50;99.90
15922;DHT22;8060;50.948;3.146;2023-05-17T11:33:58;22.30;99.90
15922;DHT22;8060;50.948;3.146;2023-05-17T11:36:27;22.60;99.90
15922;DHT22;8060;50.948;3.146;2023-05-17T11:39:12;22.80;99.90
15922;DHT22;8060;50.948;3.146;2023-05-17T11:41:47;23.00;99.90
15922;DHT22;8060;50.948;3.146;2023-05-17T11:44:20;23.10;99.90
15922;DHT22;8060;50.948;3.146;2023-05-17T11:46:51;23.20;99.90
15922;DHT22;8060;50.948;3.146;2023-05-17T11:49:20;23.30;99.90
15922;DHT22;8060;50.948;3.146;2023-05-17T11:52:02;23.40;99.90
15922;DHT22;8060;50.948;3.146;2023-05-17T11:54:32;23.30;99.90
15922;DHT22;8060;50.948;3.146;2023-05-17T11:57:01;23.50;99.90
15922;DHT22;8060;50.948;3.146;2023-05-17T11:59:35;23.50;99.90
15922;DHT22;8060;50.948;3.146;2023-05-17T12:02:05;23.30;99.90
15922;DHT22;8060;50.948;3.146;2023-05-17T12:04:35;23.30;99.90
15922;DHT22;8060;50.948;3.146;2023-05-17T12:07:05;23.40;99.90
15922;DHT22;8060;50.948;3.146;2023-05-17T12:09:37;23.40;99.90
15922;DHT22;8060;50.948;3.146;2023-05-17T12:12:06;23.30;99.90
15922;DHT22;8060;50.948;3.146;2023-05-17T12:14:35;23.10;99.90
15922;DHT22;8060;50.948;3.146;2023-05-17T12:17:07;23.10;99.90
15922;DHT22;8060;50.948;3.146;2023-05-17T12:19:35;23.40;99.90
15922;DHT22;8060;50.948;3.146;2023-05-17T12:22:08;23.50;99.90
15922;DHT22;8060;50.948;3.146;2023-05-17T12:24:40;23.50;99.90
15922;DHT22;8060;50.948;3.146;2023-05-17T12:27:09;23.60;99.90
15922;DHT22;8060;50.948;3.146;2023-05-17T12:29:38;23.50;99.90
15922;DHT22;8060;50.948;3.146;2023-05-17T12:32:07;23.40;99.90
15922;DHT22;8060;50.948;3.146;2023-05-17T12:34:37;23.20;99.90
15922;DHT22;8060;50.948;3.146;2023-05-17T12:37:06;23.20;99.90
15922;DHT22;8060;50.948;3.146;2023-05-17T12:39:36;23.20;99.90
15922;DHT22;8060;50.948;3.146;2023-05-17T12:42:07;22.90;99.90
15922;DHT22;8060;50.948;3.146;2023-05-17T12:44:36;23.10;99.90
15922;DHT22;8060;50.948;3.146;2023-05-17T12:47:04;23.30;99.90
15922;DHT22;8060;50.948;3.146;2023-05-17T12:49:37;23.10;99.90
15922;DHT22;8060;50.948;3.146;2023-05-17T12:52:06;23.20;99.90
15922;DHT22;8060;50.948;3.146;2023-05-17T12:54:34;23.00;99.90
15922;DHT22;8060;50.948;3.146;2023-05-17T12:57:11;23.00;99.90
15922;DHT22;8060;50.948;3.146;2023-05-17T12:59:48;23.20;99.90
15922;DHT22;8060;50.948;3.146;2023-05-17T13:02:18;23.40;99.90
15922;DHT22;8060;50.948;3.146;2023-05-17T13:04:47;23.60;99.90
15922;DHT22;8060;50.948;3.146;2023-05-17T13:07:20;23.40;99.90
15922;DHT22;8060;50.948;3.146;2023-05-17T13:09:50;23.50;99.90
15922;DHT22;8060;50.948;3.146;2023-05-17T13:12:21;23.30;99.90
15922;DHT22;8060;50.948;3.146;2023-05-17T13:14:50;23.20;99.90
15922;DHT22;8060;50.948;3.146;2023-05-17T13:17:24;23.10;99.90
15922;DHT22;8060;50.948;3.146;2023-05-17T13:19:52;23.10;99.90
15922;DHT22;8060;50.948;3.146;2023-05-17T13:22:23;23.00;99.90
15922;DHT22;8060;50.948;3.146;2023-05-17T13:24:52;22.90;99.90
15922;DHT22;8060;50.948;3.146;2023-05-17T13:27:22;23.10;99.90
15922;DHT22;8060;50.948;3.146;2023-05-17T13:29:50;23.10;99.90
15922;DHT22;8060;50.948;3.146;2023-05-17T13:32:19;23.10;99.90
15922;DHT22;8060;50.948;3.146;2023-05-17T13:34:48;22.90;99.90
15922;DHT22;8060;50.948;3.146;2023-05-17T13:37:16;22.90;99.90
15922;DHT22;8060;50.948;3.146;2023-05-17T13:39:44;22.80;99.90
15922;DHT22;8060;50.948;3.146;2023-05-17T13:42:12;22.70;99.90
15922;DHT22;8060;50.948;3.146;2023-05-17T13:44:42;22.80;99.90
15922;DHT22;8060;50.948;3.146;2023-05-17T13:47:10;22.80;99.90
15922;DHT22;8060;50.948;3.146;2023-05-17T13:49:38;23.00;99.90
15922;DHT22;8060;50.948;3.146;2023-05-17T13:52:07;22.90;99.90
15922;DHT22;8060;50.948;3.146;2023-05-17T13:54:35;22.90;99.90
15922;DHT22;8060;50.948;3.146;2023-05-17T13:57:05;22.90;99.90
15922;DHT22;8060;50.948;3.146;2023-05-17T13:59:34;22.70;99.90
15922;DHT22;8060;50.948;3.146;2023-05-17T14:02:04;22.70;99.90
15922;DHT22;8060;50.948;3.146;2023-05-17T14:04:32;22.80;99.90
15922;DHT22;8060;50.948;3.146;2023-05-17T14:07:01;22.70;99.90
15922;DHT22;8060;50.948;3.146;2023-05-17T14:09:29;22.50;99.90
15922;DHT22;8060;50.948;3.146;2023-05-17T14:12:00;22.40;99.90
15922;DHT22;8060;50.948;3.146;2023-05-17T14:14:29;22.20;99.90
15922;DHT22;8060;50.948;3.146;2023-05-17T14:16:57;22.10;99.90
15922;DHT22;8060;50.948;3.146;2023-05-17T14:19:28;22.20;99.90
15922;DHT22;8060;50.948;3.146;2023-05-17T14:21:57;22.10;99.90
15922;DHT22;8060;50.948;3.146;2023-05-17T14:24:25;22.00;99.90
15922;DHT22;8060;50.948;3.146;2023-05-17T14:26:53;21.90;99.90
15922;DHT22;8060;50.948;3.146;2023-05-17T14:29:23;22.10;99.90
15922;DHT22;8060;50.948;3.146;2023-05-17T14:31:51;22.10;99.90
15922;DHT22;8060;50.948;3.146;2023-05-17T14:34:20;22.00;99.90
15922;DHT22;8060;50.948;3.146;2023-05-17T14:36:52;21.90;99.90
15922;DHT22;8060;50.948;3.146;2023-05-17T14:39:20;21.80;99.90
15922;DHT22;8060;50.948;3.146;2023-05-17T14:41:48;21.70;99.90
15922;DHT22;8060;50.948;3.146;2023-05-17T14:44:17;21.70;99.90
15922;DHT22;8060;50.948;3.146;2023-05-17T14:46:45;21.70;99.90
15922;DHT22;8060;50.948;3.146;2023-05-17T14:49:13;21.50;99.90
15922;DHT22;8060;50.948;3.146;2023-05-17T14:51:41;21.30;99.90
15922;DHT22;8060;50.948;3.146;2023-05-17T14:54:12;21.30;99.90
15922;DHT22;8060;50.948;3.146;2023-05-17T14:56:40;21.20;99.90
15922;DHT22;8060;50.948;3.146;2023-05-17T14:59:09;21.10;99.90
15922;DHT22;8060;50.948;3.146;2023-05-17T15:01:37;21.10;99.90
15922;DHT22;8060;50.948;3.146;2023-05-17T15:04:05;21.20;99.90
15922;DHT22;8060;50.948;3.146;2023-05-17T15:06:33;21.10;99.90
15922;DHT22;8060;50.948;3.146;2023-05-17T15:09:01;21.00;99.90
15922;DHT22;8060;50.948;3.146;2023-05-17T15:11:31;20.90;99.90
15922;DHT22;8060;50.948;3.146;2023-05-17T15:13:59;20.80;99.90
15922;DHT22;8060;50.948;3.146;2023-05-17T15:16:28;20.70;99.90
15922;DHT22;8060;50.948;3.146;2023-05-17T15:18:56;20.70;99.90
15922;DHT22;8060;50.948;3.146;2023-05-17T15:21:25;20.70;99.90
15922;DHT22;8060;50.948;3.146;2023-05-17T15:23:53;20.60;99.90
15922;DHT22;8060;50.948;3.146;2023-05-17T15:26:21;20.60;99.90
15922;DHT22;8060;50.948;3.146;2023-05-17T15:28:51;20.60;99.90
15922;DHT22;8060;50.948;3.146;2023-05-17T15:31:19;20.50;99.90
15922;DHT22;8060;50.948;3.146;2023-05-17T15:33:49;20.40;99.90
15922;DHT22;8060;50.948;3.146;2023-05-17T15:36:17;20.30;99.90
15922;DHT22;8060;50.948;3.146;2023-05-17T15:38:46;20.20;99.90
15922;DHT22;8060;50.948;3.146;2023-05-17T15:41:15;20.00;99.90
15922;DHT22;8060;50.948;3.146;2023-05-17T15:43:44;19.90;99.90
15922;DHT22;8060;50.948;3.146;2023-05-17T15:46:14;19.70;99.90
15922;DHT22;8060;50.948;3.146;2023-05-17T15:48:42;19.70;99.90
15922;DHT22;8060;50.948;3.146;2023-05-17T15:51:11;19.80;99.90
15922;DHT22;8060;50.948;3.146;2023-05-17T15:53:39;19.70;99.90
15922;DHT22;8060;50.948;3.146;2023-05-17T15:56:07;19.70;99.90
15922;DHT22;8060;50.948;3.146;2023-05-17T15:58:36;19.70;99.90
15922;DHT22;8060;50.948;3.146;2023-05-17T16:01:04;19.70;99.90
15922;DHT22;8060;50.948;3.146;2023-05-17T16:03:34;19.70;99.90
15922;DHT22;8060;50.948;3.146;2023-05-17T16:06:03;19.70;99.90
15922;DHT22;8060;50.948;3.146;2023-05-17T16:08:32;19.70;99.90
15922;DHT22;8060;50.948;3.146;2023-05-17T16:11:00;19.60;99.90
15922;DHT22;8060;50.948;3.146;2023-05-17T16:13:28;19.40;99.90
15922;DHT22;8060;50.948;3.146;2023-05-17T16:15:57;19.30;99.90
15922;DHT22;8060;50.948;3.146;2023-05-17T16:18:25;19.30;99.90
15922;DHT22;8060;50.948;3.146;2023-05-17T16:21:00;19.10;99.90
15922;DHT22;8060;50.948;3.146;2023-05-17T16:23:29;19.10;99.90
15922;DHT22;8060;50.948;3.146;2023-05-17T16:25:57;19.20;99.90
15922;DHT22;8060;50.948;3.146;2023-05-17T16:28:25;19.10;99.90
15922;DHT22;8060;50.948;3.146;2023-05-17T16:30:53;19.10;99.90
15922;DHT22;8060;50.948;3.146;2023-05-17T16:33:22;19.00;99.90
15922;DHT22;8060;50.948;3.146;2023-05-17T16:35:50;19.00;99.90
15922;DHT22;8060;50.948;3.146;2023-05-17T16:38:20;19.10;99.90
15922;DHT22;8060;50.948;3.146;2023-05-17T16:40:48;19.10;99.90
15922;DHT22;8060;50.948;3.146;2023-05-17T16:43:16;18.90;99.90
15922;DHT22;8060;50.948;3.146;2023-05-17T16:45:45;18.70;99.90
15922;DHT22;8060;50.948;3.146;2023-05-17T16:48:13;18.60;99.90
15922;DHT22;8060;50.948;3.146;2023-05-17T16:50:42;18.40;99.90
15922;DHT22;8060;50.948;3.146;2023-05-17T16:53:10;18.40;99.90
15922;DHT22;8060;50.948;3.146;2023-05-17T16:55:40;18.30;99.90
15922;DHT22;8060;50.948;3.146;2023-05-17T16:58:08;18.40;99.90
15922;DHT22;8060;50.948;3.146;2023-05-17T17:00:39;18.30;99.90
15922;DHT22;8060;50.948;3.146;2023-05-17T17:03:08;18.30;99.90
15922;DHT22;8060;50.948;3.146;2023-05-17T17:05:40;18.20;99.90
15922;DHT22;8060;50.948;3.146;2023-05-17T17:08:08;18.20;99.90
15922;DHT22;8060;50.948;3.146;2023-05-17T17:10:36;18.20;99.90
15922;DHT22;8060;50.948;3.146;2023-05-17T17:13:05;18.00;99.90
15922;DHT22;8060;50.948;3.146;2023-05-17T17:15:33;18.10;99.90
15922;DHT22;8060;50.948;3.146;2023-05-17T17:18:02;18.00;99.90
15922;DHT22;8060;50.948;3.146;2023-05-17T17:20:31;18.00;99.90
15922;DHT22;8060;50.948;3.146;2023-05-17T17:22:59;18.00;99.90
15922;DHT22;8060;50.948;3.146;2023-05-17T17:25:28;18.10;99.90
15922;DHT22;8060;50.948;3.146;2023-05-17T17:27:56;18.20;99.90
15922;DHT22;8060;50.948;3.146;2023-05-17T17:30:25;17.90;99.90
15922;DHT22;8060;50.948;3.146;2023-05-17T17:32:54;18.00;99.90
15922;DHT22;8060;50.948;3.146;2023-05-17T17:35:22;18.00;99.90
15922;DHT22;8060;50.948;3.146;2023-05-17T17:37:50;18.00;99.90
15922;DHT22;8060;50.948;3.146;2023-05-17T17:40:19;17.80;99.90
15922;DHT22;8060;50.948;3.146;2023-05-17T17:42:47;17.70;99.90
15922;DHT22;8060;50.948;3.146;2023-05-17T17:45:16;17.60;99.90
15922;DHT22;8060;50.948;3.146;2023-05-17T17:47:45;17.40;99.90
15922;DHT22;8060;50.948;3.146;2023-05-17T17:50:13;17.30;99.90
15922;DHT22;8060;50.948;3.146;2023-05-17T17:52:42;17.20;99.90
15922;DHT22;8060;50.948;3.146;2023-05-17T17:55:10;17.20;99.90
15922;DHT22;8060;50.948;3.146;2023-05-17T17:57:39;17.10;99.90
15922;DHT22;8060;50.948;3.146;2023-05-17T18:00:08;17.20;99.90
15922;DHT22;8060;50.948;3.146;2023-05-17T18:02:37;16.90;99.90
15922;DHT22;8060;50.948;3.146;2023-05-17T18:05:08;16.90;99.90
15922;DHT22;8060;50.948;3.146;2023-05-17T18:07:37;16.90;99.90
15922;DHT22;8060;50.948;3.146;2023-05-17T18:10:06;16.90;99.90
15922;DHT22;8060;50.948;3.146;2023-05-17T18:12:35;16.80;99.90
15922;DHT22;8060;50.948;3.146;2023-05-17T18:15:04;16.70;99.90
15922;DHT22;8060;50.948;3.146;2023-05-17T18:17:32;16.70;99.90
15922;DHT22;8060;50.948;3.146;2023-05-17T18:20:00;16.70;99.90
15922;DHT22;8060;50.948;3.146;2023-05-17T18:22:30;16.60;99.90
15922;DHT22;8060;50.948;3.146;2023-05-17T18:24:58;16.60;99.90
15922;DHT22;8060;50.948;3.146;2023-05-17T18:27:26;16.60;99.90
15922;DHT22;8060;50.948;3.146;2023-05-17T18:29:54;16.50;99.90
15922;DHT22;8060;50.948;3.146;2023-05-17T18:32:23;16.50;99.90
15922;DHT22;8060;50.948;3.146;2023-05-17T18:34:51;16.30;99.90
15922;DHT22;8060;50.948;3.146;2023-05-17T18:37:20;16.20;99.90
15922;DHT22;8060;50.948;3.146;2023-05-17T18:39:50;16.20;99.90
15922;DHT22;8060;50.948;3.146;2023-05-17T18:42:19;16.10;99.90
15922;DHT22;8060;50.948;3.146;2023-05-17T18:44:50;16.00;99.90
15922;DHT22;8060;50.948;3.146;2023-05-17T18:47:19;16.00;99.90
15922;DHT22;8060;50.948;3.146;2023-05-17T18:49:49;16.10;99.90
15922;DHT22;8060;50.948;3.146;2023-05-17T18:52:17;15.90;99.90
